ADDS METAR Data INFO
IDs: Format: Raw Decoded Include TAF

Data at: 2159 UTC 18 Oct 2017

KDUB 182135Z AUTO 29023G31KT 10SM CLR 16/M15 A3015 RMK AO2
KDUB 182115Z AUTO 31018G30KT 10SM CLR 16/M15 A3015 RMK AO2
KDUB 182055Z AUTO 10SM CLR 16/M15 A3015 RMK AO2
KDUB 182035Z AUTO 31013G21KT 10SM CLR 16/M13 A3015 RMK AO2
KDUB 182015Z AUTO 32019G25KT 10SM CLR 16/M13 A3015 RMK AO2
KDUB 181955Z AUTO 32021G30KT 10SM CLR 16/M15 A3015 RMK AO2
KDUB 181935Z AUTO 32015G27KT 10SM CLR 16/M15 A3016 RMK AO2
KDUB 181915Z AUTO 10SM CLR 16/M15 A3017 RMK AO2
KDUB 181855Z AUTO 29015G21KT 10SM CLR 15/M13 A3018 RMK AO2
KDUB 181835Z AUTO 28018G26KT 10SM CLR 15/M13 A3019 RMK AO2
KDUB 181815Z AUTO 29011G18KT 10SM CLR 15/M13 A3020 RMK AO2
KDUB 181755Z AUTO 28016G22KT 10SM CLR 14/M14 A3019 RMK AO2
KDUB 181735Z AUTO 29013G19KT 10SM CLR 13/M13 A3020 RMK AO2
KDUB 181715Z AUTO 33016G27KT 10SM CLR 13/M13 A3020 RMK AO2
KDUB 181655Z AUTO 34009KT 10SM CLR 12/M11 A3021 RMK AO2
KDUB 181635Z AUTO 36008KT 10SM CLR 11/M10 A3021 RMK AO2
KDUB 181615Z AUTO 31005KT 10SM CLR 10/M10 A3022 RMK AO2
KDUB 181550Z AUTO 29010KT 10SM CLR 07/M09 A3022 RMK AO2
KDUB 181535Z AUTO 29009KT 10SM CLR 06/M09 A3022 RMK AO2
KDUB 181515Z AUTO 30012KT 10SM CLR 05/M10 A3021 RMK AO2
KDUB 181455Z AUTO 30013KT 10SM CLR 03/M09 A3020 RMK AO2
KDUB 181435Z AUTO 30012KT 10SM CLR 02/M10 A3020 RMK AO2
KDUB 181415Z AUTO 31011KT 10SM CLR 02/M10 A3018 RMK AO2
KDUB 181355Z AUTO 33009KT 10SM CLR 02/M10 A3018 RMK AO2
KDUB 181335Z AUTO 32005KT 10SM CLR 01/M10 A3018 RMK AO2
KDUB 181315Z AUTO 30008KT 10SM CLR 02/M10 A3016 RMK AO2
KDUB 181255Z AUTO 31010KT 10SM CLR 02/M10 A3016 RMK AO2
KDUB 181235Z AUTO 30009KT 10SM CLR 03/M11 A3016 RMK AO2
KDUB 181215Z AUTO 32012KT 10SM CLR 04/M11 A3016 RMK AO2
KDUB 181155Z AUTO 33012KT 10SM CLR 05/M11 A3015 RMK AO2
KDUB 181130Z AUTO 34012KT 10SM CLR 06/M11 A3015 RMK AO2
KDUB 181115Z AUTO 33012KT 10SM CLR 05/M11 A3014 RMK AO2
KDUB 181055Z AUTO 34020G27KT 10SM CLR 07/M12 A3012 RMK AO2
KDUB 181035Z AUTO 33013G18KT 10SM CLR 06/M12 A3011 RMK AO2
KDUB 181015Z AUTO 34007G27KT 10SM CLR 09/M13 A3009 RMK AO2
KDUB 180955Z AUTO 27021G32KT 10SM CLR 09/M13 A3007 RMK AO2
KDUB 180935Z AUTO 28023G30KT 10SM CLR 10/M13 A3009 RMK AO2
KDUB 180915Z AUTO 28024G34KT 10SM CLR 09/M13 A3009 RMK AO2
KDUB 180855Z AUTO 29020G30KT 10SM CLR 09/M14 A3011 RMK AO2
KDUB 180835Z AUTO 31014KT 10SM CLR 05/M12 A3014 RMK AO2
KDUB 180815Z AUTO 32018KT 10SM CLR 04/M12 A3015 RMK AO2
KDUB 180755Z AUTO 32020G23KT 10SM CLR 05/M12 A3015 RMK AO2
KDUB 180735Z AUTO 32016G20KT 10SM CLR 06/M13 A3014 RMK AO2
KDUB 180715Z AUTO 32017G20KT 10SM CLR 06/M13 A3013 RMK AO2
KDUB 180655Z AUTO 31020G27KT 10SM CLR 07/M13 A3013 RMK AO2
KDUB 180635Z AUTO 32022G27KT 10SM CLR 06/M13 A3012 RMK AO2
KDUB 180615Z AUTO 31017G25KT 10SM CLR 07/M13 A3010 RMK AO2
KDUB 180555Z AUTO 28018G27KT 10SM CLR 10/M15 A3010 RMK AO2
KDUB 180535Z AUTO 28025G37KT 10SM CLR 11/M15 A3010 RMK AO2
KDUB 180515Z AUTO 28024G33KT 10SM CLR 11/M15 A3010 RMK AO2
KDUB 180455Z AUTO 28026G34KT 10SM CLR 11/M15 A3009 RMK AO2
KDUB 180435Z AUTO 28027G34KT 10SM CLR 11/M15 A3009 RMK AO2
KDUB 180415Z AUTO 28022G34KT 10SM CLR 11/M15 A3010 RMK AO2
KDUB 180355Z AUTO 28027G36KT 10SM CLR 11/M15 A3009 RMK AO2
KDUB 180335Z AUTO 28024G35KT 10SM CLR 11/M15 A3009 RMK AO2
KDUB 180315Z AUTO 27026G33KT 10SM CLR 11/M15 A3008 RMK AO2
KDUB 180255Z AUTO 28025G32KT 10SM CLR 11/M16 A3010 RMK AO2
KDUB 180235Z AUTO 28023G30KT 10SM CLR 11/M15 A3011 RMK AO2
KDUB 180215Z AUTO 28016G28KT 10SM CLR 11/M15 A3011 RMK AO2
KDUB 180155Z AUTO 28015G20KT 10SM CLR 10/M13 A3011 RMK AO2
KDUB 180135Z AUTO 32016G24KT 10SM CLR 10/M13 A3011 RMK AO2
KDUB 180115Z AUTO 31018G25KT 10SM CLR 10/M13 A3011 RMK AO2
KDUB 180055Z AUTO 32016G19KT 10SM CLR 11/M13 A3011 RMK AO2
KDUB 180035Z AUTO 31018G22KT 10SM CLR 12/M12 A3011 RMK AO2
KDUB 180015Z AUTO 30013G19KT 10SM CLR 12/M12 A3010 RMK AO2
KDUB 172355Z AUTO 32013G24KT 10SM CLR 13/M12 A3010 RMK AO2
KDUB 172335Z AUTO 10SM CLR 14/M12 A3010 RMK AO2
KDUB 172315Z AUTO 10SM CLR 14/M12 A3011 RMK AO2
KDUB 172255Z AUTO 32018G30KT 10SM CLR 15/M12 A3010 RMK AO2
KDUB 172235Z AUTO 32021G33KT 10SM CLR 16/M12 A3011 RMK AO2
KDUB 172215Z AUTO 31024KT 10SM CLR 16/M12 A3012 RMK AO2
KDUB 172155Z AUTO 29018G27KT 10SM CLR 16/M12 A3013 RMK AO2
KDUB 172135Z AUTO 29019G28KT 10SM CLR 17/M12 A3013 RMK AO2
KDUB 172115Z AUTO 30019G37KT 10SM CLR 16/M12 A3014 RMK AO2
KDUB 172055Z AUTO 30027G34KT 10SM CLR 16/M12 A3014 RMK AO2
KDUB 172035Z AUTO 29028G33KT 10SM CLR 17/M12 A3014 RMK AO2
KDUB 172015Z AUTO 28028G36KT 10SM CLR 16/M12 A3014 RMK AO2
KDUB 171955Z AUTO 27026G33KT 10SM CLR 16/M12 A3015 RMK AO2
KDUB 171935Z AUTO 28022G27KT 10SM CLR 16/M12 A3016 RMK AO2
KDUB 171915Z AUTO 28024G34KT 10SM CLR 16/M12 A3016 RMK AO2
KDUB 171855Z AUTO 29020G28KT 10SM CLR 16/M12 A3018 RMK AO2
KDUB 171835Z AUTO 27013G22KT 225V315 10SM CLR 16/M11 A3020 RMK AO2
KDUB 171815Z AUTO 31010G21KT 10SM CLR 15/M12 A3021 RMK AO2
KDUB 171755Z AUTO 31012G18KT 245V335 10SM CLR 15/M12 A3021 RMK AO2
KDUB 171735Z AUTO 35011G22KT 10SM CLR 14/M12 A3022 RMK AO2
KDUB 171715Z AUTO 01017G26KT 10SM CLR 13/M12 A3022 RMK AO2
KDUB 171655Z AUTO 36019G24KT 10SM CLR 12/M12 A3023 RMK AO2
KDUB 171635Z AUTO 34014G23KT 10SM CLR 11/M11 A3024 RMK AO2
KDUB 171615Z AUTO 33014G24KT 10SM CLR 11/M11 A3025 RMK AO2
KDUB 171555Z AUTO 34014G20KT 10SM CLR 10/M11 A3027 RMK AO2
KDUB 171535Z AUTO 35012G15KT 10SM CLR 08/M10 A3027 RMK AO2
KDUB 171515Z AUTO 32012G17KT 10SM CLR 06/M10 A3028 RMK AO2
KDUB 171455Z AUTO 32014G17KT 10SM CLR 05/M10 A3028 RMK AO2
KDUB 171435Z AUTO 32012G16KT 10SM CLR 04/M10 A3028 RMK AO2
KDUB 171415Z AUTO 31005KT 10SM CLR 02/M10 A3028 RMK AO2
KDUB 171355Z AUTO 31010KT 10SM CLR 01/M10 A3028 RMK AO2
KDUB 171335Z AUTO 29005G08KT 10SM CLR 02/M10 A3029 RMK AO2
KDUB 171315Z AUTO 32005KT 10SM CLR 01/M10 A3029 RMK AO2
KDUB 171255Z AUTO 30010KT 10SM CLR 00/M09 A3029 RMK AO2
KDUB 171235Z AUTO 29012KT 10SM CLR 00/M09 A3029 RMK AO2
KDUB 171215Z AUTO 30012KT 10SM CLR 00/M09 A3029 RMK AO2
KDUB 171155Z AUTO 29013KT 10SM CLR 00/M09 A3030 RMK AO2
KDUB 171135Z AUTO 30012KT 10SM CLR 01/M10 A3030 RMK AO2
KDUB 171115Z AUTO 30013KT 10SM CLR 01/M10 A3030 RMK AO2
KDUB 171055Z AUTO 31011KT 10SM CLR 02/M10 A3030 RMK AO2
KDUB 171035Z AUTO 32012G18KT 10SM CLR 03/M10 A3030 RMK AO2
KDUB 171015Z AUTO 31015G19KT 10SM CLR 02/M10 A3030 RMK AO2